Time;durP1;ratioP1;P1;durP2;ratioP2;P2;SDS_P1;SDS_P2;PMS_P1;PMS_P2;Temp;Humidity;BMP_temperature;BMP_pressure;BME280_temperature;BME280_humidity;BME280_pressure;Samples;Min_cycle;Max_cycle;Signal;HPM_P1;HPM_P2
2021/04/19 00:00:39;;;;;;;15.10;13.50;;;;;;;10.34;71.51;96560.66;5053212;28;20175;-60
2021/04/19 00:03:04;;;;;;;15.80;14.13;;;;;;;9.62;73.99;96557.09;5053449;28;20223;-60
2021/04/19 00:05:30;;;;;;;17.07;13.20;;;;;;;9.63;73.91;96562.13;5053444;28;20665;-56
2021/04/19 00:07:56;;;;;;;17.07;13.40;;;;;;;9.85;72.89;96555.47;5052460;28;20202;-57
2021/04/19 00:10:22;;;;;;;16.27;13.70;;;;;;;9.75;73.60;96556.97;5051930;28;20206;-57
2021/04/19 00:12:48;;;;;;;15.73;12.83;;;;;;;9.46;74.41;96558.41;5053025;28;20239;-57
2021/04/19 00:15:16;;;;;;;15.20;12.77;;;;;;;9.79;73.63;96558.97;5052922;28;20452;-57
2021/04/19 00:17:41;;;;;;;14.87;12.20;;;;;;;10.06;72.21;96559.50;5052880;28;20665;-60
2021/04/19 00:20:08;;;;;;;17.77;14.00;;;;;;;9.88;72.45;96559.47;5053175;28;20518;-56
2021/04/19 00:22:34;;;;;;;14.97;13.10;;;;;;;10.01;72.65;96559.34;5052820;28;20177;-57
2021/04/19 00:25:01;;;;;;;16.07;12.67;;;;;;;9.85;72.61;96546.78;5052709;28;20806;-60
2021/04/19 00:27:26;;;;;;;16.77;12.87;;;;;;;9.89;72.34;96556.63;5052386;28;20508;-58
2021/04/19 00:29:52;;;;;;;15.13;13.63;;;;;;;9.93;72.54;96552.56;5053292;28;20459;-57
2021/04/19 00:32:18;;;;;;;16.07;14.33;;;;;;;9.94;72.52;96551.56;5052922;28;20543;-56
2021/04/19 00:34:43;;;;;;;13.33;11.93;;;;;;;9.45;75.10;96553.38;5052639;28;20413;-60
2021/04/19 00:37:09;;;;;;;15.33;12.70;;;;;;;9.64;74.33;96544.56;5052221;28;20468;-58
2021/04/19 00:39:34;;;;;;;14.90;13.30;;;;;;;9.90;73.43;96546.94;5052277;28;20250;-60
2021/04/19 00:42:00;;;;;;;15.53;12.70;;;;;;;10.10;72.24;96547.59;5048156;28;20186;-56
2021/04/19 00:44:26;;;;;;;14.70;12.80;;;;;;;10.17;72.18;96543.88;5052871;28;20641;-60
2021/04/19 00:46:52;;;;;;;16.30;13.07;;;;;;;10.24;71.66;96543.78;5052360;28;20181;-61
2021/04/19 00:49:17;;;;;;;14.67;13.30;;;;;;;10.12;71.62;96535.84;5052795;28;20194;-60
2021/04/19 00:51:44;;;;;;;18.70;13.83;;;;;;;9.62;74.25;96542.13;5053132;28;20402;-56
2021/04/19 00:54:12;;;;;;;15.73;14.03;;;;;;;9.51;75.21;96539.44;5052413;28;20522;-61
2021/04/19 00:56:38;;;;;;;16.93;13.63;;;;;;;9.86;74.11;96532.66;5052299;28;20414;-56
2021/04/19 00:59:04;;;;;;;16.70;14.87;;;;;;;10.01;73.12;96535.72;5052418;28;20424;-57
2021/04/19 01:01:32;;;;;;;16.70;14.83;;;;;;;10.04;72.51;96530.84;5052633;28;20431;-61
2021/04/19 01:03:58;;;;;;;17.27;13.40;;;;;;;9.88;73.18;96528.00;5052676;28;20734;-60
2021/04/19 01:06:23;;;;;;;14.43;12.93;;;;;;;9.05;76.85;96529.28;5052306;28;20524;-57
2021/04/19 01:08:49;;;;;;;14.57;12.97;;;;;;;8.83;78.05;96535.84;5034345;28;20556;-60
2021/04/19 01:11:14;;;;;;;13.97;12.57;;;;;;;8.51;79.43;96532.41;5052684;28;20243;-60
2021/04/19 01:13:40;;;;;;;15.47;13.27;;;;;;;8.50;79.93;96536.00;5052831;28;20174;-57
2021/04/19 01:16:06;;;;;;;15.30;12.80;;;;;;;8.89;78.52;96527.16;5051927;28;20231;-60
2021/04/19 01:18:31;;;;;;;15.17;13.07;;;;;;;9.10;77.43;96529.44;5052211;28;20193;-60
2021/04/19 01:20:57;;;;;;;14.93;12.70;;;;;;;9.06;77.15;96528.25;5054566;28;20214;-60
2021/04/19 01:23:23;;;;;;;20.20;13.70;;;;;;;8.73;78.62;96535.50;5056153;28;20323;-57
2021/04/19 01:25:49;;;;;;;13.80;12.33;;;;;;;8.43;80.25;96532.63;5056540;28;20428;-56
2021/04/19 01:28:16;;;;;;;15.93;14.23;;;;;;;8.86;79.21;96535.44;5055408;28;20423;-57
2021/04/19 01:30:44;;;;;;;17.37;14.03;;;;;;;9.10;77.21;96532.88;5056057;28;20637;-60
2021/04/19 01:33:10;;;;;;;15.13;13.03;;;;;;;8.95;78.20;96534.19;5056057;28;20417;-60
2021/04/19 01:35:36;;;;;;;15.00;13.43;;;;;;;8.93;78.15;96521.28;5056384;28;20499;-60
2021/04/19 01:38:04;;;;;;;16.50;13.30;;;;;;;8.42;80.83;96531.03;5055757;28;20186;-61
2021/04/19 01:40:30;;;;;;;18.13;14.00;;;;;;;8.53;80.53;96524.34;5054915;28;20430;-61
2021/04/19 01:42:55;;;;;;;17.10;13.87;;;;;;;8.61;80.19;96522.28;5056090;28;20469;-57
2021/04/19 01:45:21;;;;;;;16.63;14.10;;;;;;;8.76;79.56;96525.41;5055605;28;20222;-60
2021/04/19 01:47:46;;;;;;;15.50;13.10;;;;;;;9.07;78.45;96527.25;5055676;28;20175;-60
2021/04/19 01:50:15;;;;;;;16.90;13.43;;;;;;;9.00;78.88;96522.06;5056070;28;20212;-60
2021/04/19 01:52:40;;;;;;;15.73;14.17;;;;;;;8.75;79.75;96518.56;5055874;28;20225;-60
2021/04/19 01:55:09;;;;;;;15.80;13.40;;;;;;;8.91;79.97;96517.28;5055752;28;20419;-58
2021/04/19 01:57:38;;;;;;;15.20;13.60;;;;;;;9.18;78.54;96519.53;5054851;28;20174;-57
2021/04/19 02:00:08;;;;;;;16.57;14.80;;;;;;;9.07;78.39;96514.97;5055411;28;20470;-60
2021/04/19 02:02:49;;;;;;;17.73;15.73;;;;;;;8.85;79.33;96520.72;5054487;28;20921;-57
2021/04/19 02:05:35;;;;;;;15.63;14.00;;;;;;;8.30;82.03;96522.19;5056094;28;20498;-61
2021/04/19 02:08:15;;;;;;;20.30;14.40;;;;;;;7.82;84.03;96523.53;5055094;28;20423;-60
2021/04/19 02:10:52;;;;;;;20.10;16.77;;;;;;;8.12;83.75;96517.59;5042493;28;20428;-57
2021/04/19 02:13:27;;;;;;;17.83;14.83;;;;;;;8.41;82.15;96518.16;5055523;28;20407;-60
2021/04/19 02:15:58;;;;;;;17.43;13.80;;;;;;;8.49;81.54;96512.66;5055188;28;20422;-59
2021/04/19 02:18:28;;;;;;;18.77;16.40;;;;;;;8.10;83.18;96511.78;5054874;28;20496;-56
2021/04/19 02:21:01;;;;;;;17.73;14.93;;;;;;;8.23;83.98;96513.53;5055340;28;20838;-59
2021/04/19 02:23:33;;;;;;;18.73;15.33;;;;;;;8.29;83.39;96504.91;5055064;28;20457;-57
2021/04/19 02:26:05;;;;;;;19.30;16.00;;;;;;;8.37;82.75;96499.41;5055310;28;20924;-60
2021/04/19 02:28:33;;;;;;;17.90;14.60;;;;;;;8.45;83.00;96493.13;5054343;28;20448;-60
2021/04/19 02:31:07;;;;;;;19.10;16.30;;;;;;;8.36;83.47;96504.84;5055326;28;20433;-57
2021/04/19 02:33:38;;;;;;;19.80;16.13;;;;;;;8.43;83.12;96500.41;5054813;28;20441;-57
2021/04/19 02:36:09;;;;;;;18.57;15.03;;;;;;;8.56;82.54;96500.34;5055355;28;20402;-56
2021/04/19 02:38:38;;;;;;;22.40;16.27;;;;;;;8.51;82.65;96506.22;5054291;28;20498;-60
2021/04/19 02:41:08;;;;;;;18.63;16.17;;;;;;;8.56;81.97;96506.38;5054144;28;20424;-60
2021/04/19 02:43:35;;;;;;;22.53;17.40;;;;;;;8.61;81.80;96505.75;5054975;28;20960;-57
2021/04/19 02:46:03;;;;;;;17.00;15.20;;;;;;;8.53;82.50;96512.06;5054278;28;20483;-56
2021/04/19 02:48:30;;;;;;;21.60;17.20;;;;;;;8.47;82.82;96505.03;5054668;28;20430;-59
2021/04/19 02:50:57;;;;;;;18.37;16.20;;;;;;;8.36;83.16;96500.44;5055099;28;20408;-60
2021/04/19 02:53:24;;;;;;;19.93;17.47;;;;;;;8.11;84.53;96512.59;5054710;28;20929;-58
2021/04/19 02:55:50;;;;;;;22.17;16.47;;;;;;;7.91;85.10;96511.84;5054445;28;21299;-57
2021/04/19 02:58:25;;;;;;;21.83;16.83;;;;;;;7.90;85.34;96508.41;5036468;28;20756;-56
2021/04/19 03:00:51;;;;;;;19.00;16.87;;;;;;;8.14;83.95;96510.34;5054620;28;20423;-60
2021/04/19 03:03:28;;;;;;;22.87;17.57;;;;;;;8.14;84.68;96512.16;5054448;28;20464;-57
2021/04/19 03:05:57;;;;;;;18.67;16.50;;;;;;;8.14;84.46;96509.53;5035012;28;20481;-57
2021/04/19 03:08:25;;;;;;;21.10;18.80;;;;;;;8.54;82.98;96502.34;5044740;28;20424;-59
2021/04/19 03:10:58;;;;;;;21.13;18.80;;;;;;;8.50;82.19;96501.19;5053946;28;21152;-57
2021/04/19 03:13:27;;;;;;;22.63;19.10;;;;;;;8.44;82.81;96502.81;5054887;28;20395;-60
2021/04/19 03:15:56;;;;;;;20.17;17.53;;;;;;;8.29;83.03;96499.66;5053861;28;20453;-60
2021/04/19 03:18:24;;;;;;;21.73;18.83;;;;;;;8.47;82.82;96502.41;5053793;28;20418;-58
2021/04/19 03:21:08;;;;;;;24.20;19.63;;;;;;;8.69;81.80;96501.09;5054859;28;20407;-60
2021/04/19 03:23:40;;;;;;;24.37;18.10;;;;;;;8.88;80.95;96494.91;5053675;28;20447;-60
2021/04/19 03:26:06;;;;;;;23.40;19.00;;;;;;;9.08;80.31;96500.81;5053920;28;20505;-59
2021/04/19 03:28:33;;;;;;;22.53;19.37;;;;;;;9.00;79.76;96497.66;5053299;28;20942;-57
2021/04/19 03:31:12;;;;;;;25.97;19.87;;;;;;;8.89;79.92;96496.53;5054307;28;20403;-59
2021/04/19 03:33:40;;;;;;;25.10;19.87;;;;;;;8.72;80.97;96498.03;5053944;28;20407;-56
2021/04/19 03:36:08;;;;;;;22.57;19.53;;;;;;;9.03;80.01;96498.03;5054131;28;20419;-58
2021/04/19 03:38:36;;;;;;;24.60;19.57;;;;;;;9.13;79.54;96500.97;5052607;28;20502;-56
2021/04/19 03:41:02;;;;;;;23.67;19.73;;;;;;;9.29;78.63;96489.19;5053513;28;20445;-60
2021/04/19 03:43:30;;;;;;;22.23;18.80;;;;;;;8.89;80.81;96501.78;5052841;28;20465;-59
2021/04/19 03:45:58;;;;;;;26.87;20.83;;;;;;;8.95;80.65;96489.66;5053395;28;20417;-60
2021/04/19 03:48:26;;;;;;;24.73;19.73;;;;;;;8.93;81.03;96491.66;5053344;28;20442;-56
2021/04/19 03:51:03;;;;;;;23.67;18.33;;;;;;;9.01;80.28;96491.41;5053647;28;20401;-58
2021/04/19 03:53:30;;;;;;;21.27;18.03;;;;;;;9.07;80.26;96487.94;5053425;28;20494;-61
2021/04/19 03:55:58;;;;;;;21.13;18.00;;;;;;;9.06;80.20;96489.75;5053153;28;20419;-57
2021/04/19 03:58:27;;;;;;;19.83;17.33;;;;;;;9.21;80.05;96490.25;5053234;28;20411;-57
2021/04/19 04:00:55;;;;;;;24.17;18.50;;;;;;;9.40;79.34;96485.06;5053626;28;20481;-60
2021/04/19 04:03:21;;;;;;;22.10;17.93;;;;;;;9.71;78.44;96487.59;5053308;28;20542;-60
2021/04/19 04:05:48;;;;;;;19.97;17.23;;;;;;;9.88;77.45;96480.75;5053431;28;20928;-56
2021/04/19 04:08:16;;;;;;;23.50;19.20;;;;;;;9.68;77.02;96485.38;5052652;28;20503;-57
2021/04/19 04:10:42;;;;;;;23.53;19.87;;;;;;;9.40;77.81;96483.25;5052897;28;20443;-57
2021/04/19 04:13:08;;;;;;;22.00;19.53;;;;;;;9.42;78.61;96483.03;5053444;28;20421;-57
2021/04/19 04:15:33;;;;;;;25.90;20.80;;;;;;;9.17;79.17;96483.81;5053363;28;20419;-56
2021/04/19 04:17:59;;;;;;;23.57;19.93;;;;;;;8.89;80.20;96486.06;5052957;28;20186;-56
2021/04/19 04:20:24;;;;;;;21.40;18.83;;;;;;;8.98;79.97;96483.97;5053191;28;20288;-60
2021/04/19 04:22:50;;;;;;;24.60;19.90;;;;;;;9.30;79.71;96486.34;5052894;28;20180;-59
2021/04/19 04:25:17;;;;;;;26.90;20.97;;;;;;;8.89;81.13;96480.00;5052935;28;20187;-57
2021/04/19 04:27:42;;;;;;;25.10;20.07;;;;;;;8.86;80.35;96490.91;5052370;28;20184;-61
2021/04/19 04:30:08;;;;;;;23.37;20.70;;;;;;;8.40;82.87;96482.50;5052669;28;20447;-60
2021/04/19 04:32:34;;;;;;;25.63;20.50;;;;;;;8.53;82.55;96485.88;5053416;28;20176;-56
2021/04/19 04:35:00;;;;;;;29.43;21.50;;;;;;;8.82;81.88;96477.41;5052841;28;20432;-56
2021/04/19 04:37:25;;;;;;;27.27;20.70;;;;;;;9.15;80.44;96485.03;5052273;28;20177;-57
2021/04/19 04:39:51;;;;;;;26.13;20.60;;;;;;;9.38;79.01;96484.47;5053117;28;20424;-60
2021/04/19 04:42:18;;;;;;;29.03;20.97;;;;;;;9.07;80.11;96480.88;5052614;28;20206;-61
2021/04/19 04:44:46;;;;;;;24.40;20.63;;;;;;;8.87;80.84;96485.47;5053057;28;20198;-60
2021/04/19 04:47:32;;;;;;;26.67;19.90;;;;;;;8.69;81.49;96490.59;5052157;28;20913;-60
2021/04/19 04:50:15;;;;;;;29.33;20.47;;;;;;;8.75;81.73;96483.72;5053117;28;20430;-60
2021/04/19 04:52:53;;;;;;;27.77;21.70;;;;;;;8.73;82.23;96486.53;5052770;28;20461;-60
2021/04/19 04:55:20;;;;;;;27.47;19.97;;;;;;;8.80;82.31;96491.75;5055211;28;20778;-56
2021/04/19 04:57:47;;;;;;;22.97;18.97;;;;;;;8.75;82.73;96489.75;5056313;28;20428;-56
2021/04/19 05:00:16;;;;;;;21.87;19.33;;;;;;;8.86;82.97;96496.94;5056870;28;20977;-57
2021/04/19 05:02:44;;;;;;;21.93;18.00;;;;;;;9.18;81.26;96495.94;5056501;28;20427;-60
2021/04/19 05:05:10;;;;;;;22.70;19.63;;;;;;;9.46;80.46;96494.69;5056830;28;20446;-60
2021/04/19 05:07:36;;;;;;;24.10;19.80;;;;;;;9.44;80.17;96494.09;5055749;28;20431;-61
2021/04/19 05:10:04;;;;;;;25.40;18.93;;;;;;;8.77;82.59;96495.59;5057058;28;20435;-56
2021/04/19 05:12:31;;;;;;;25.40;19.57;;;;;;;8.33;85.85;96490.38;5056901;28;20181;-56
2021/04/19 05:14:57;;;;;;;25.03;19.53;;;;;;;8.73;84.22;96489.16;5056889;28;20457;-56
2021/04/19 05:17:22;;;;;;;23.00;20.10;;;;;;;8.68;84.30;96494.22;5055745;28;20427;-56
2021/04/19 05:19:48;;;;;;;21.33;18.87;;;;;;;8.19;86.44;96494.03;5056383;28;20445;-56
2021/04/19 05:22:13;;;;;;;26.67;19.57;;;;;;;8.04;88.28;96496.09;5056311;28;20210;-56
2021/04/19 05:24:38;;;;;;;25.67;21.30;;;;;;;8.21;87.91;96499.84;5055257;28;20191;-56
2021/04/19 05:27:04;;;;;;;23.93;17.87;;;;;;;8.45;87.34;96496.56;5055832;28;20185;-61
2021/04/19 05:29:31;;;;;;;26.13;21.07;;;;;;;8.64;86.61;96494.88;5055804;28;20223;-56
2021/04/19 05:31:56;;;;;;;21.70;19.40;;;;;;;9.00;85.17;96492.44;5056039;28;20426;-61
2021/04/19 05:34:22;;;;;;;24.03;19.63;;;;;;;9.27;84.23;96497.28;5037988;28;20508;-60
2021/04/19 05:36:47;;;;;;;24.47;20.23;;;;;;;9.45;83.18;96498.31;5056217;28;20649;-58
2021/04/19 05:39:13;;;;;;;24.53;20.20;;;;;;;9.63;82.69;96500.97;5055851;28;20242;-54
2021/04/19 05:41:40;;;;;;;28.40;21.63;;;;;;;9.77;82.27;96505.06;5055497;28;20189;-54
2021/04/19 05:44:06;;;;;;;27.43;20.67;;;;;;;9.88;82.08;96505.19;5055815;28;20810;-54
2021/04/19 05:46:32;;;;;;;24.67;21.93;;;;;;;9.93;81.81;96496.63;5055310;28;20912;-57
2021/04/19 05:48:57;;;;;;;26.13;22.87;;;;;;;9.95;80.98;96502.47;5055516;28;20456;-60
2021/04/19 05:51:27;;;;;;;24.20;20.23;;;;;;;10.04;80.50;96509.84;5056478;28;20183;-60
2021/04/19 05:53:56;;;;;;;25.30;21.63;;;;;;;10.05;80.49;96502.78;5056708;28;20171;-57
2021/04/19 05:56:42;;;;;;;25.20;20.20;;;;;;;9.91;80.04;96504.72;5055607;28;20426;-60
2021/04/19 05:59:19;;;;;;;23.77;19.97;;;;;;;9.49;82.61;96516.03;5055196;28;20498;-61
2021/04/19 06:01:52;;;;;;;25.00;20.90;;;;;;;9.49;82.49;96520.47;5055099;28;20423;-56
2021/04/19 06:04:31;;;;;;;24.37;20.67;;;;;;;9.59;82.75;96515.53;5055461;28;20448;-57
2021/04/19 06:07:12;;;;;;;27.17;20.10;;;;;;;9.41;84.27;96525.97;5054676;28;20924;-61
2021/04/19 06:09:45;;;;;;;24.77;20.40;;;;;;;9.58;83.29;96520.00;5055901;28;20424;-57
2021/04/19 06:12:12;;;;;;;28.27;21.33;;;;;;;9.00;86.07;96518.63;5055242;28;20420;-60
2021/04/19 06:14:44;;;;;;;26.97;22.23;;;;;;;8.55;89.85;96522.31;5055383;28;20865;-57
2021/04/19 06:17:10;;;;;;;27.53;20.00;;;;;;;8.91;88.32;96520.69;5051547;28;20424;-58
2021/04/19 06:19:40;;;;;;;27.00;19.90;;;;;;;9.04;87.36;96525.84;5054940;28;20453;-59
2021/04/19 06:22:06;;;;;;;30.20;21.97;;;;;;;8.46;90.54;96521.72;5055384;28;20408;-60
2021/04/19 06:24:32;;;;;;;23.80;20.00;;;;;;;8.38;91.07;96524.59;5055351;28;20447;-60
2021/04/19 06:26:58;;;;;;;30.17;22.40;;;;;;;8.56;91.65;96529.16;5054731;28;20418;-60
2021/04/19 06:29:28;;;;;;;31.00;21.93;;;;;;;8.82;89.45;96526.41;5054726;28;20664;-60
2021/04/19 06:31:54;;;;;;;32.67;23.23;;;;;;;8.84;90.95;96519.91;5055089;28;20420;-57
2021/04/19 06:34:19;;;;;;;34.13;23.03;;;;;;;8.99;90.35;96525.69;5055371;28;20463;-60
2021/04/19 06:36:47;;;;;;;26.97;21.97;;;;;;;9.30;88.85;96527.47;5055233;28;20425;-61
2021/04/19 06:39:14;;;;;;;32.13;21.50;;;;;;;8.77;89.62;96519.16;5054113;28;20275;-60
2021/04/19 06:41:40;;;;;;;27.77;20.17;;;;;;;9.04;88.97;96527.69;5054270;28;20604;-57
2021/04/19 06:44:07;;;;;;;30.23;21.57;;;;;;;8.54;90.19;96524.13;5037269;28;20521;-60
2021/04/19 06:46:38;;;;;;;35.40;21.43;;;;;;;8.73;89.60;96520.59;5054423;28;20925;-57
2021/04/19 06:49:05;;;;;;;33.63;23.47;;;;;;;9.02;89.26;96530.50;5054338;28;20436;-57
2021/04/19 06:51:31;;;;;;;29.73;22.80;;;;;;;9.29;87.81;96528.50;5054993;28;20408;-60
2021/04/19 06:53:58;;;;;;;25.57;21.63;;;;;;;9.32;87.44;96534.13;5054600;28;20424;-58
2021/04/19 06:56:33;;;;;;;30.77;21.40;;;;;;;9.21;88.22;96529.56;5054624;28;20500;-57
2021/04/19 06:58:59;;;;;;;32.00;21.50;;;;;;;9.16;89.20;96531.22;5039550;28;20447;-62
2021/04/19 07:01:28;;;;;;;27.37;21.40;;;;;;;9.48;88.18;96526.72;5054676;28;20410;-60
2021/04/19 07:04:03;;;;;;;27.93;20.87;;;;;;;9.51;86.40;96545.47;5054320;28;20208;-60
2021/04/19 07:06:33;;;;;;;26.37;20.80;;;;;;;9.46;85.33;96537.44;5042331;28;20427;-57
2021/04/19 07:09:04;;;;;;;25.00;21.40;;;;;;;9.36;86.04;96537.13;5052808;28;20435;-60
2021/04/19 07:11:37;;;;;;;33.43;22.10;;;;;;;9.60;85.76;96536.31;5054743;28;20400;-57
2021/04/19 07:14:05;;;;;;;24.60;19.53;;;;;;;9.80;84.76;96533.53;5054147;28;20416;-60
2021/04/19 07:16:32;;;;;;;22.63;19.67;;;;;;;9.84;84.36;96532.88;5054425;28;20493;-60
2021/04/19 07:18:58;;;;;;;30.17;22.73;;;;;;;9.79;85.13;96543.22;5052802;28;20447;-56
2021/04/19 07:21:23;;;;;;;28.83;23.40;;;;;;;9.80;85.48;96542.19;5054429;28;20401;-60
2021/04/19 07:23:48;;;;;;;29.63;22.77;;;;;;;9.83;85.65;96540.97;5053960;28;20534;-57
2021/04/19 07:26:14;;;;;;;31.47;22.73;;;;;;;9.93;85.94;96536.81;5036471;28;20607;-57
2021/04/19 07:28:39;;;;;;;28.63;23.60;;;;;;;10.11;85.42;96533.44;5052975;28;20199;-60
2021/04/19 07:31:07;;;;;;;36.20;25.13;;;;;;;10.15;85.79;96535.41;5054134;28;20165;-57
2021/04/19 07:33:34;;;;;;;30.80;23.77;;;;;;;10.07;85.11;96533.03;5054185;28;20246;-60
2021/04/19 07:36:19;;;;;;;29.03;23.63;;;;;;;10.12;84.91;96529.78;5053490;28;20425;-60
2021/04/19 07:38:45;;;;;;;26.67;20.77;;;;;;;10.13;83.93;96531.38;5053392;28;20432;-60
2021/04/19 07:41:11;;;;;;;35.90;26.60;;;;;;;10.11;83.72;96531.63;5053388;28;20421;-57
2021/04/19 07:43:38;;;;;;;26.03;22.23;;;;;;;10.04;83.90;96533.47;5053601;28;20467;-56
2021/04/19 07:46:22;;;;;;;25.37;20.27;;;;;;;10.08;83.88;96533.84;5053640;28;20209;-60
2021/04/19 07:48:52;;;;;;;25.33;20.77;;;;;;;10.15;83.62;96531.97;5035078;28;20856;-58
2021/04/19 07:51:32;;;;;;;26.30;19.57;;;;;;;9.82;84.40;96528.88;5090531;27;20519;-56
2021/04/19 07:54:10;;;;;;;23.60;19.43;;;;;;;9.70;85.55;96533.19;5090740;28;20425;-53
2021/04/19 07:56:36;;;;;;;24.83;20.30;;;;;;;9.67;85.44;96529.22;5090938;28;20483;-58
2021/04/19 07:59:20;;;;;;;22.40;19.30;;;;;;;9.83;85.43;96530.47;5089944;28;20438;-55
2021/04/19 08:02:06;;;;;;;23.00;19.90;;;;;;;9.83;84.59;96514.72;5071896;28;20431;-58
2021/04/19 08:04:33;;;;;;;24.30;20.20;;;;;;;9.86;85.29;96524.78;5071733;28;20443;-56
2021/04/19 08:06:59;;;;;;;26.53;20.40;;;;;;;9.79;85.64;96529.28;5069996;28;20432;-59
2021/04/19 08:09:32;;;;;;;22.20;18.63;;;;;;;9.63;86.23;96530.66;5070317;28;20955;-56
2021/04/19 08:12:07;;;;;;;22.83;18.77;;;;;;;9.31;88.54;96532.50;5080640;28;20291;-55
2021/04/19 08:14:33;;;;;;;25.37;20.07;;;;;;;9.59;87.42;96526.03;5087162;28;20426;-57
2021/04/19 08:17:09;;;;;;;24.07;20.30;;;;;;;9.14;90.46;96536.69;5087110;28;20418;-60
2021/04/19 08:19:38;;;;;;;22.37;20.00;;;;;;;9.44;89.84;96526.34;5086948;28;20189;-56
2021/04/19 08:22:21;;;;;;;22.00;19.60;;;;;;;9.18;90.21;96526.56;5076860;28;20479;-56
2021/04/19 08:24:47;;;;;;;23.90;19.87;;;;;;;9.15;89.70;96519.91;5066478;28;20407;-56
2021/04/19 08:27:24;;;;;;;21.43;18.50;;;;;;;8.85;91.67;96532.03;5066182;28;20415;-56
2021/04/19 08:29:50;;;;;;;26.33;20.80;;;;;;;9.03;91.40;96521.63;5066053;28;20498;-56
2021/04/19 08:32:18;;;;;;;26.00;19.50;;;;;;;9.28;91.04;96526.88;5074415;28;20419;-57
2021/04/19 08:34:45;;;;;;;24.60;20.20;;;;;;;9.05;92.05;96526.66;5084594;28;20421;-56
2021/04/19 08:37:11;;;;;;;23.43;19.50;;;;;;;9.33;90.17;96527.03;5072505;28;20420;-57
2021/04/19 08:39:38;;;;;;;28.50;20.90;;;;;;;9.26;90.10;96521.88;5064667;28;20469;-56
2021/04/19 08:42:04;;;;;;;27.27;20.70;;;;;;;9.05;91.12;96529.28;5066885;28;20430;-57
2021/04/19 08:44:34;;;;;;;24.47;19.67;;;;;;;9.22;90.99;96525.13;5078992;28;20414;-56
2021/04/19 08:47:01;;;;;;;24.97;19.90;;;;;;;9.55;90.54;96528.28;5086179;28;20418;-57
2021/04/19 08:49:29;;;;;;;27.30;21.23;;;;;;;9.58;90.36;96530.50;5084783;28;20531;-57
2021/04/19 08:51:54;;;;;;;26.20;20.20;;;;;;;9.97;88.96;96543.25;5080365;28;20418;-57
2021/04/19 08:54:21;;;;;;;26.43;19.70;;;;;;;10.11;88.03;96542.13;5085899;28;20422;-57
2021/04/19 08:56:47;;;;;;;22.37;20.07;;;;;;;10.22;87.03;96532.69;5086323;28;20169;-56
2021/04/19 08:59:13;;;;;;;25.60;20.87;;;;;;;10.35;87.06;96536.00;5070609;28;20514;-57
2021/04/19 09:01:41;;;;;;;25.40;20.03;;;;;;;10.44;87.97;96540.94;5059220;28;20178;-56
2021/04/19 09:04:07;;;;;;;23.77;20.10;;;;;;;10.68;87.06;96532.97;5052367;28;20839;-55
2021/04/19 09:06:44;;;;;;;22.20;19.13;;;;;;;10.59;87.64;96541.38;5052204;28;20979;-56
2021/04/19 09:09:14;;;;;;;25.10;20.33;;;;;;;10.64;86.87;96544.13;5052085;28;20429;-56
2021/04/19 09:11:40;;;;;;;23.47;20.97;;;;;;;10.52;86.29;96546.72;5052317;28;20424;-56
2021/04/19 09:14:09;;;;;;;25.33;20.70;;;;;;;10.36;86.23;96548.09;5053231;28;20515;-57
2021/04/19 09:16:37;;;;;;;24.23;19.33;;;;;;;10.45;85.86;96545.19;5051959;28;20962;-57
2021/04/19 09:19:04;;;;;;;28.57;22.17;;;;;;;10.40;85.35;96550.31;5060238;28;20853;-58
2021/04/19 09:21:38;;;;;;;30.63;21.23;;;;;;;10.14;86.51;96552.19;5074796;28;20771;-58
2021/04/19 09:24:06;;;;;;;29.07;20.50;;;;;;;9.70;88.11;96549.75;5064027;28;20420;-58
2021/04/19 09:27:01;;;;;;;20.03;17.47;;;;;;;9.19;90.68;96554.38;5053938;28;20475;-58
2021/04/19 09:29:27;;;;;;;28.23;21.37;;;;;;;9.06;92.48;96543.97;5055057;28;20949;-58
2021/04/19 09:31:55;;;;;;;23.47;20.97;;;;;;;9.36;92.25;96547.63;5054854;28;20418;-56
2021/04/19 09:34:40;;;;;;;30.73;23.60;;;;;;;8.92;95.54;96552.94;5055190;28;20549;-57
2021/04/19 09:37:11;;;;;;;28.30;21.33;;;;;;;9.38;93.48;96548.22;5055055;28;20410;-57
2021/04/19 09:39:42;;;;;;;27.80;22.10;;;;;;;8.95;94.55;96547.28;5055257;28;20446;-58
2021/04/19 09:42:08;;;;;;;27.03;21.90;;;;;;;9.19;93.60;96549.13;5054853;28;20769;-56
2021/04/19 09:44:33;;;;;;;30.07;21.10;;;;;;;9.25;92.89;96556.97;5055087;28;20408;-57
2021/04/19 09:46:59;;;;;;;26.10;21.50;;;;;;;9.64;91.18;96547.19;5064824;28;20188;-61
2021/04/19 09:49:24;;;;;;;27.60;23.50;;;;;;;9.67;90.21;96546.75;5074719;28;20205;-57
2021/04/19 09:51:50;;;;;;;29.27;21.80;;;;;;;9.29;91.75;96544.25;5074432;28;20250;-57
2021/04/19 09:54:22;;;;;;;26.07;20.80;;;;;;;8.88;93.94;96547.31;5074939;28;20170;-57
2021/04/19 09:56:53;;;;;;;27.87;21.10;;;;;;;9.01;93.47;96546.44;5074961;28;20437;-58
2021/04/19 09:59:23;;;;;;;27.40;22.63;;;;;;;9.41;92.28;96545.16;5068079;28;20453;-57
2021/04/19 10:01:51;;;;;;;28.47;23.87;;;;;;;9.66;91.68;96551.19;5060903;28;20969;-58
2021/04/19 10:04:18;;;;;;;27.00;22.23;;;;;;;9.08;93.98;96553.25;5072988;28;20436;-57
2021/04/19 10:06:49;;;;;;;27.97;23.20;;;;;;;9.52;93.52;96549.69;5074712;28;20417;-57
2021/04/19 10:09:21;;;;;;;34.60;25.63;;;;;;;9.53;93.92;96551.28;5074146;28;20421;-57
2021/04/19 10:11:50;;;;;;;27.97;21.97;;;;;;;9.23;95.57;96545.09;5075070;28;20403;-56
2021/04/19 10:14:18;;;;;;;30.60;22.23;;;;;;;9.25;93.79;96549.09;5070824;28;20428;-57
2021/04/19 10:16:53;;;;;;;31.13;23.33;;;;;;;9.27;95.74;96548.88;5074570;28;20414;-57
2021/04/19 10:19:28;;;;;;;33.10;23.20;;;;;;;9.82;93.04;96544.63;5074225;28;20908;-57
2021/04/19 10:22:04;;;;;;;27.33;22.07;;;;;;;9.58;92.75;96554.09;5070878;28;20427;-56
2021/04/19 10:24:30;;;;;;;23.93;20.40;;;;;;;9.04;94.28;96548.66;5066509;28;20407;-57
2021/04/19 10:26:56;;;;;;;24.83;22.13;;;;;;;9.43;92.80;96553.59;5062823;28;20911;-57
2021/04/19 10:29:26;;;;;;;28.70;23.33;;;;;;;9.58;92.67;96548.84;5059861;28;20475;-57
2021/04/19 10:32:00;;;;;;;29.17;23.00;;;;;;;9.59;92.01;96552.25;5062418;28;20177;-58
2021/04/19 10:34:28;;;;;;;31.27;22.80;;;;;;;9.76;91.69;96543.66;5069895;28;20431;-57
2021/04/19 10:37:03;;;;;;;28.53;22.63;;;;;;;9.46;92.28;96552.41;5070254;28;20400;-58
2021/04/19 10:39:32;;;;;;;30.63;22.60;;;;;;;9.55;93.60;96548.50;5070511;28;20827;-58
2021/04/19 10:42:04;;;;;;;24.50;21.83;;;;;;;9.64;92.13;96557.69;5070458;28;20499;-58
2021/04/19 10:44:42;;;;;;;26.60;23.60;;;;;;;9.51;93.37;96550.69;5066053;28;20470;-57
2021/04/19 10:47:13;;;;;;;29.27;22.20;;;;;;;9.88;92.76;96543.72;5049727;28;20439;-58
2021/04/19 10:49:40;;;;;;;25.90;22.73;;;;;;;9.42;92.86;96549.38;5049942;28;20471;-57
2021/04/19 10:52:07;;;;;;;29.50;22.10;;;;;;;9.68;92.75;96540.47;5062437;28;20451;-58
2021/04/19 10:54:36;;;;;;;28.97;23.10;;;;;;;9.75;92.78;96546.47;5069724;28;20416;-58
2021/04/19 10:57:03;;;;;;;21.87;19.50;;;;;;;8.95;96.69;96540.22;5062918;28;20413;-59
2021/04/19 10:59:29;;;;;;;26.40;20.77;;;;;;;8.88;96.78;96536.84;5056338;28;20937;-57
2021/04/19 11:01:58;;;;;;;25.63;20.10;;;;;;;9.27;95.60;96539.22;5070093;28;20437;-57
2021/04/19 11:04:24;;;;;;;26.40;21.80;;;;;;;9.24;95.82;96536.19;5063123;28;20424;-57
2021/04/19 11:06:49;;;;;;;28.03;22.00;;;;;;;8.83;99.20;96541.09;5049497;28;20428;-62
2021/04/19 11:09:20;;;;;;;30.90;23.37;;;;;;;8.87;99.31;96539.66;5049767;28;20685;-57
2021/04/19 11:11:51;;;;;;;24.90;21.03;;;;;;;9.18;97.36;96535.25;5050853;28;20186;-58
2021/04/19 11:14:26;;;;;;;24.00;21.07;;;;;;;9.31;93.37;96542.22;5050857;28;20423;-58
2021/04/19 11:17:00;;;;;;;28.07;20.30;;;;;;;9.21;94.93;96539.25;5049737;28;20439;-58
2021/04/19 11:19:28;;;;;;;23.03;19.13;;;;;;;9.32;95.61;96536.75;5049490;28;20435;-58
2021/04/19 11:21:54;;;;;;;25.23;19.97;;;;;;;9.02;94.22;96530.50;5049829;28;20416;-57
2021/04/19 11:24:19;;;;;;;25.20;20.27;;;;;;;9.27;94.01;96533.16;5049568;28;20753;-57
2021/04/19 11:26:45;;;;;;;27.37;20.67;;;;;;;9.72;92.74;96533.78;5051037;28;20433;-59
2021/04/19 11:29:10;;;;;;;26.10;20.23;;;;;;;9.86;91.86;96527.41;5069237;28;20730;-56
2021/04/19 11:31:51;;;;;;;21.47;17.60;;;;;;;9.70;90.03;96534.00;5069119;28;20692;-58